sensor_id;sensor_type;location;lat;lon;timestamp;P1;durP1;ratioP1;P2;durP2;ratioP2
23444;SDS011;11895;48.738;9.320;2022-11-18T00:01:18;3.80;;;1.90;;
23444;SDS011;11895;48.738;9.320;2022-11-18T00:03:48;3.03;;;1.90;;
23444;SDS011;11895;48.738;9.320;2022-11-18T00:06:18;3.65;;;1.90;;
23444;SDS011;11895;48.738;9.320;2022-11-18T00:11:42;2.25;;;1.40;;
23444;SDS011;11895;48.738;9.320;2022-11-18T00:14:29;7.07;;;2.13;;
23444;SDS011;11895;48.738;9.320;2022-11-18T00:17:00;2.85;;;1.48;;
23444;SDS011;11895;48.738;9.320;2022-11-18T00:19:34;4.15;;;1.58;;
23444;SDS011;11895;48.738;9.320;2022-11-18T00:22:05;3.50;;;1.63;;
23444;SDS011;11895;48.738;9.320;2022-11-18T00:24:37;6.20;;;1.45;;
23444;SDS011;11895;48.738;9.320;2022-11-18T00:27:04;6.85;;;1.80;;
23444;SDS011;11895;48.738;9.320;2022-11-18T00:29:32;6.72;;;1.88;;
23444;SDS011;11895;48.738;9.320;2022-11-18T00:32:01;3.10;;;2.00;;
23444;SDS011;11895;48.738;9.320;2022-11-18T00:34:29;3.88;;;1.95;;
23444;SDS011;11895;48.738;9.320;2022-11-18T00:36:57;3.50;;;1.63;;
23444;SDS011;11895;48.738;9.320;2022-11-18T00:39:24;6.72;;;1.90;;
23444;SDS011;11895;48.738;9.320;2022-11-18T00:41:52;1.88;;;1.33;;
23444;SDS011;11895;48.738;9.320;2022-11-18T00:44:40;2.50;;;1.50;;
23444;SDS011;11895;48.738;9.320;2022-11-18T00:47:13;2.70;;;1.40;;
23444;SDS011;11895;48.738;9.320;2022-11-18T00:49:41;2.25;;;1.50;;
23444;SDS011;11895;48.738;9.320;2022-11-18T00:52:08;5.15;;;1.70;;
23444;SDS011;11895;48.738;9.320;2022-11-18T00:54:36;5.03;;;2.28;;
23444;SDS011;11895;48.738;9.320;2022-11-18T00:57:04;5.22;;;2.40;;
23444;SDS011;11895;48.738;9.320;2022-11-18T00:59:32;5.00;;;1.70;;
23444;SDS011;11895;48.738;9.320;2022-11-18T01:02:00;3.63;;;2.00;;
23444;SDS011;11895;48.738;9.320;2022-11-18T01:04:28;3.33;;;2.03;;
23444;SDS011;11895;48.738;9.320;2022-11-18T01:06:56;6.35;;;2.25;;
23444;SDS011;11895;48.738;9.320;2022-11-18T01:09:24;2.30;;;1.60;;
23444;SDS011;11895;48.738;9.320;2022-11-18T01:11:53;2.97;;;1.77;;
23444;SDS011;11895;48.738;9.320;2022-11-18T01:14:40;4.22;;;1.90;;
23444;SDS011;11895;48.738;9.320;2022-11-18T01:17:08;5.28;;;1.15;;
23444;SDS011;11895;48.738;9.320;2022-11-18T01:19:35;9.45;;;1.60;;
23444;SDS011;11895;48.738;9.320;2022-11-18T01:22:03;3.85;;;1.10;;
23444;SDS011;11895;48.738;9.320;2022-11-18T01:24:31;1.83;;;1.10;;
23444;SDS011;11895;48.738;9.320;2022-11-18T01:27:00;2.47;;;1.63;;
23444;SDS011;11895;48.738;9.320;2022-11-18T01:29:28;6.15;;;1.67;;
23444;SDS011;11895;48.738;9.320;2022-11-18T01:31:56;1.83;;;1.35;;
23444;SDS011;11895;48.738;9.320;2022-11-18T01:34:43;3.65;;;1.35;;
23444;SDS011;11895;48.738;9.320;2022-11-18T01:37:11;1.90;;;1.00;;
23444;SDS011;11895;48.738;9.320;2022-11-18T01:39:39;3.20;;;1.00;;
23444;SDS011;11895;48.738;9.320;2022-11-18T01:42:11;1.60;;;1.20;;
23444;SDS011;11895;48.738;9.320;2022-11-18T01:47:36;7.20;;;1.80;;
23444;SDS011;11895;48.738;9.320;2022-11-18T01:50:11;2.85;;;1.73;;
23444;SDS011;11895;48.738;9.320;2022-11-18T01:52:41;5.03;;;1.67;;
23444;SDS011;11895;48.738;9.320;2022-11-18T01:55:17;1.83;;;1.48;;
23444;SDS011;11895;48.738;9.320;2022-11-18T01:58:06;3.17;;;1.70;;
23444;SDS011;11895;48.738;9.320;2022-11-18T02:00:40;3.00;;;1.67;;
23444;SDS011;11895;48.738;9.320;2022-11-18T02:03:08;3.67;;;1.88;;
23444;SDS011;11895;48.738;9.320;2022-11-18T02:05:36;4.47;;;1.70;;
23444;SDS011;11895;48.738;9.320;2022-11-18T02:08:06;3.30;;;1.55;;
23444;SDS011;11895;48.738;9.320;2022-11-18T02:10:34;2.30;;;1.58;;
23444;SDS011;11895;48.738;9.320;2022-11-18T02:13:03;4.35;;;1.50;;
23444;SDS011;11895;48.738;9.320;2022-11-18T02:15:45;8.48;;;1.15;;
23444;SDS011;11895;48.738;9.320;2022-11-18T02:27:25;1.65;;;1.15;;
23444;SDS011;11895;48.738;9.320;2022-11-18T02:30:23;2.50;;;0.85;;
23444;SDS011;11895;48.738;9.320;2022-11-18T02:35:38;2.13;;;1.10;;
23444;SDS011;11895;48.738;9.320;2022-11-18T02:38:14;6.43;;;1.05;;
23444;SDS011;11895;48.738;9.320;2022-11-18T02:41:28;1.40;;;0.82;;
23444;SDS011;11895;48.738;9.320;2022-11-18T02:43:52;2.33;;;1.00;;
23444;SDS011;11895;48.738;9.320;2022-11-18T02:46:33;4.00;;;1.10;;
23444;SDS011;11895;48.738;9.320;2022-11-18T02:49:06;4.55;;;0.85;;
23444;SDS011;11895;48.738;9.320;2022-11-18T02:51:42;3.75;;;0.73;;
23444;SDS011;11895;48.738;9.320;2022-11-18T02:54:13;1.60;;;0.95;;
23444;SDS011;11895;48.738;9.320;2022-11-18T02:56:45;4.82;;;1.08;;
23444;SDS011;11895;48.738;9.320;2022-11-18T02:59:18;11.60;;;0.93;;
23444;SDS011;11895;48.738;9.320;2022-11-18T03:01:46;3.70;;;0.70;;
23444;SDS011;11895;48.738;9.320;2022-11-18T03:04:14;13.27;;;1.08;;
23444;SDS011;11895;48.738;9.320;2022-11-18T03:06:55;2.95;;;0.88;;
23444;SDS011;11895;48.738;9.320;2022-11-18T03:09:50;2.47;;;0.95;;
23444;SDS011;11895;48.738;9.320;2022-11-18T03:20:56;2.05;;;1.10;;
23444;SDS011;11895;48.738;9.320;2022-11-18T03:23:45;2.15;;;1.02;;
23444;SDS011;11895;48.738;9.320;2022-11-18T03:26:30;4.50;;;1.00;;
23444;SDS011;11895;48.738;9.320;2022-11-18T03:29:04;1.92;;;1.25;;
23444;SDS011;11895;48.738;9.320;2022-11-18T03:34:30;1.73;;;0.70;;
23444;SDS011;11895;48.738;9.320;2022-11-18T03:37:07;2.17;;;1.27;;
23444;SDS011;11895;48.738;9.320;2022-11-18T03:39:40;2.17;;;0.80;;
23444;SDS011;11895;48.738;9.320;2022-11-18T03:42:14;5.65;;;1.30;;
23444;SDS011;11895;48.738;9.320;2022-11-18T03:44:59;1.75;;;1.13;;
23444;SDS011;11895;48.738;9.320;2022-11-18T03:50:13;3.17;;;1.02;;
23444;SDS011;11895;48.738;9.320;2022-11-18T03:52:47;1.13;;;0.82;;
23444;SDS011;11895;48.738;9.320;2022-11-18T03:55:18;8.40;;;1.08;;
23444;SDS011;11895;48.738;9.320;2022-11-18T03:58:24;7.43;;;1.00;;
23444;SDS011;11895;48.738;9.320;2022-11-18T04:01:10;6.15;;;0.95;;
23444;SDS011;11895;48.738;9.320;2022-11-18T04:03:47;7.57;;;1.10;;
23444;SDS011;11895;48.738;9.320;2022-11-18T04:06:19;3.33;;;0.90;;
23444;SDS011;11895;48.738;9.320;2022-11-18T04:09:23;5.57;;;0.93;;
23444;SDS011;11895;48.738;9.320;2022-11-18T04:11:58;3.15;;;1.20;;
23444;SDS011;11895;48.738;9.320;2022-11-18T04:14:36;3.17;;;1.20;;
23444;SDS011;11895;48.738;9.320;2022-11-18T04:17:07;2.35;;;1.00;;
23444;SDS011;11895;48.738;9.320;2022-11-18T04:19:45;4.10;;;1.13;;
23444;SDS011;11895;48.738;9.320;2022-11-18T04:22:14;6.60;;;1.50;;
23444;SDS011;11895;48.738;9.320;2022-11-18T04:24:44;4.32;;;1.30;;
23444;SDS011;11895;48.738;9.320;2022-11-18T04:27:12;3.67;;;1.60;;
23444;SDS011;11895;48.738;9.320;2022-11-18T04:29:40;2.63;;;1.20;;
23444;SDS011;11895;48.738;9.320;2022-11-18T04:32:08;6.30;;;1.60;;
23444;SDS011;11895;48.738;9.320;2022-11-18T04:34:35;3.95;;;1.33;;
23444;SDS011;11895;48.738;9.320;2022-11-18T04:37:03;5.10;;;1.60;;
23444;SDS011;11895;48.738;9.320;2022-11-18T04:39:31;6.60;;;1.52;;
23444;SDS011;11895;48.738;9.320;2022-11-18T04:41:58;2.80;;;1.65;;
23444;SDS011;11895;48.738;9.320;2022-11-18T04:44:52;2.08;;;1.13;;
23444;SDS011;11895;48.738;9.320;2022-11-18T04:47:20;5.82;;;1.30;;
23444;SDS011;11895;48.738;9.320;2022-11-18T04:49:49;3.40;;;1.20;;
23444;SDS011;11895;48.738;9.320;2022-11-18T04:52:17;7.32;;;1.15;;
23444;SDS011;11895;48.738;9.320;2022-11-18T04:54:45;3.10;;;1.00;;
23444;SDS011;11895;48.738;9.320;2022-11-18T04:57:12;4.72;;;1.10;;
23444;SDS011;11895;48.738;9.320;2022-11-18T04:59:40;14.30;;;1.35;;
23444;SDS011;11895;48.738;9.320;2022-11-18T05:02:08;3.75;;;0.77;;
23444;SDS011;11895;48.738;9.320;2022-11-18T05:04:36;3.80;;;1.00;;
23444;SDS011;11895;48.738;9.320;2022-11-18T05:07:04;2.47;;;1.00;;
23444;SDS011;11895;48.738;9.320;2022-11-18T05:09:33;5.70;;;0.80;;
23444;SDS011;11895;48.738;9.320;2022-11-18T05:12:01;1.25;;;0.80;;
23444;SDS011;11895;48.738;9.320;2022-11-18T05:14:47;1.33;;;0.70;;
23444;SDS011;11895;48.738;9.320;2022-11-18T05:17:16;1.52;;;0.85;;
23444;SDS011;11895;48.738;9.320;2022-11-18T05:19:44;1.95;;;0.70;;
23444;SDS011;11895;48.738;9.320;2022-11-18T05:22:13;2.08;;;0.90;;
23444;SDS011;11895;48.738;9.320;2022-11-18T05:24:41;1.48;;;0.90;;
23444;SDS011;11895;48.738;9.320;2022-11-18T05:27:09;2.10;;;0.70;;
23444;SDS011;11895;48.738;9.320;2022-11-18T05:29:38;2.45;;;0.98;;
23444;SDS011;11895;48.738;9.320;2022-11-18T05:32:05;2.60;;;0.50;;
23444;SDS011;11895;48.738;9.320;2022-11-18T05:34:33;5.05;;;0.70;;
23444;SDS011;11895;48.738;9.320;2022-11-18T05:37:01;1.00;;;0.63;;
23444;SDS011;11895;48.738;9.320;2022-11-18T05:39:28;0.85;;;0.63;;
23444;SDS011;11895;48.738;9.320;2022-11-18T05:41:58;0.70;;;0.60;;
23444;SDS011;11895;48.738;9.320;2022-11-18T05:44:44;10.32;;;5.20;;
23444;SDS011;11895;48.738;9.320;2022-11-18T05:50:25;2.35;;;1.02;;
23444;SDS011;11895;48.738;9.320;2022-11-18T05:52:53;2.35;;;1.17;;
23444;SDS011;11895;48.738;9.320;2022-11-18T05:55:21;2.15;;;0.80;;
23444;SDS011;11895;48.738;9.320;2022-11-18T05:57:59;3.95;;;0.95;;
23444;SDS011;11895;48.738;9.320;2022-11-18T06:00:27;1.95;;;1.10;;
23444;SDS011;11895;48.738;9.320;2022-11-18T06:02:56;1.45;;;0.98;;
23444;SDS011;11895;48.738;9.320;2022-11-18T06:05:24;1.48;;;0.90;;
23444;SDS011;11895;48.738;9.320;2022-11-18T06:07:53;1.45;;;0.82;;
23444;SDS011;11895;48.738;9.320;2022-11-18T06:10:24;1.35;;;0.88;;
23444;SDS011;11895;48.738;9.320;2022-11-18T06:12:58;3.90;;;1.02;;
23444;SDS011;11895;48.738;9.320;2022-11-18T06:15:34;5.15;;;1.25;;
23444;SDS011;11895;48.738;9.320;2022-11-18T06:18:07;1.10;;;0.90;;
23444;SDS011;11895;48.738;9.320;2022-11-18T06:20:43;1.98;;;1.20;;
23444;SDS011;11895;48.738;9.320;2022-11-18T06:23:12;1.13;;;0.88;;
23444;SDS011;11895;48.738;9.320;2022-11-18T06:25:40;3.40;;;1.50;;
23444;SDS011;11895;48.738;9.320;2022-11-18T06:28:09;5.17;;;1.10;;
23444;SDS011;11895;48.738;9.320;2022-11-18T06:30:40;3.65;;;1.05;;
23444;SDS011;11895;48.738;9.320;2022-11-18T06:33:08;6.97;;;1.10;;
23444;SDS011;11895;48.738;9.320;2022-11-18T06:35:36;1.55;;;0.95;;
23444;SDS011;11895;48.738;9.320;2022-11-18T06:38:04;5.15;;;1.10;;
23444;SDS011;11895;48.738;9.320;2022-11-18T06:40:31;2.40;;;1.10;;
23444;SDS011;11895;48.738;9.320;2022-11-18T06:43:04;2.88;;;1.20;;
23444;SDS011;11895;48.738;9.320;2022-11-18T06:45:57;4.93;;;1.90;;
23444;SDS011;11895;48.738;9.320;2022-11-18T06:48:45;4.78;;;1.30;;
23444;SDS011;11895;48.738;9.320;2022-11-18T06:51:14;3.53;;;1.33;;
23444;SDS011;11895;48.738;9.320;2022-11-18T06:53:42;2.25;;;1.42;;
23444;SDS011;11895;48.738;9.320;2022-11-18T06:56:11;4.80;;;1.55;;
23444;SDS011;11895;48.738;9.320;2022-11-18T06:58:41;2.28;;;1.38;;
23444;SDS011;11895;48.738;9.320;2022-11-18T07:03:47;3.70;;;1.35;;
23444;SDS011;11895;48.738;9.320;2022-11-18T07:06:22;2.03;;;1.40;;
23444;SDS011;11895;48.738;9.320;2022-11-18T07:08:54;3.60;;;1.40;;
23444;SDS011;11895;48.738;9.320;2022-11-18T07:11:23;6.15;;;2.20;;
23444;SDS011;11895;48.738;9.320;2022-11-18T07:13:52;3.55;;;1.80;;
23444;SDS011;11895;48.738;9.320;2022-11-18T07:16:25;10.45;;;5.68;;
23444;SDS011;11895;48.738;9.320;2022-11-18T07:18:56;7.70;;;3.63;;
23444;SDS011;11895;48.738;9.320;2022-11-18T07:21:25;10.75;;;4.40;;
23444;SDS011;11895;48.738;9.320;2022-11-18T07:23:55;13.05;;;3.88;;
23444;SDS011;11895;48.738;9.320;2022-11-18T07:26:23;11.50;;;4.22;;
23444;SDS011;11895;48.738;9.320;2022-11-18T07:28:52;12.75;;;4.57;;
23444;SDS011;11895;48.738;9.320;2022-11-18T07:31:19;10.30;;;4.07;;
23444;SDS011;11895;48.738;9.320;2022-11-18T07:33:47;9.32;;;3.90;;
23444;SDS011;11895;48.738;9.320;2022-11-18T07:36:26;6.30;;;3.53;;
23444;SDS011;11895;48.738;9.320;2022-11-18T07:39:01;8.43;;;4.15;;
23444;SDS011;11895;48.738;9.320;2022-11-18T07:41:32;7.38;;;4.28;;
23444;SDS011;11895;48.738;9.320;2022-11-18T07:44:01;7.85;;;3.40;;
23444;SDS011;11895;48.738;9.320;2022-11-18T07:46:31;10.38;;;3.47;;
23444;SDS011;11895;48.738;9.320;2022-11-18T07:49:04;12.13;;;3.72;;
23444;SDS011;11895;48.738;9.320;2022-11-18T07:51:36;8.75;;;3.67;;
23444;SDS011;11895;48.738;9.320;2022-11-18T07:54:09;6.45;;;3.80;;
23444;SDS011;11895;48.738;9.320;2022-11-18T07:56:39;5.50;;;3.20;;
23444;SDS011;11895;48.738;9.320;2022-11-18T07:59:07;7.18;;;4.05;;
23444;SDS011;11895;48.738;9.320;2022-11-18T08:01:35;9.85;;;3.03;;
23444;SDS011;11895;48.738;9.320;2022-11-18T08:04:04;6.65;;;4.25;;
23444;SDS011;11895;48.738;9.320;2022-11-18T08:06:35;6.95;;;4.28;;
23444;SDS011;11895;48.738;9.320;2022-11-18T08:09:04;6.03;;;2.58;;
23444;SDS011;11895;48.738;9.320;2022-11-18T08:11:34;6.53;;;4.15;;
23444;SDS011;11895;48.738;9.320;2022-11-18T08:14:03;5.72;;;2.88;;
23444;SDS011;11895;48.738;9.320;2022-11-18T08:16:31;8.60;;;5.43;;
23444;SDS011;11895;48.738;9.320;2022-11-18T08:18:59;8.25;;;3.30;;
23444;SDS011;11895;48.738;9.320;2022-11-18T08:21:27;9.10;;;4.47;;
23444;SDS011;11895;48.738;9.320;2022-11-18T08:23:55;14.13;;;4.45;;
23444;SDS011;11895;48.738;9.320;2022-11-18T08:26:23;9.73;;;5.72;;
23444;SDS011;11895;48.738;9.320;2022-11-18T08:28:52;12.93;;;7.45;;
23444;SDS011;11895;48.738;9.320;2022-11-18T08:31:21;9.35;;;4.72;;
23444;SDS011;11895;48.738;9.320;2022-11-18T08:33:55;4.05;;;2.72;;
23444;SDS011;11895;48.738;9.320;2022-11-18T08:36:32;4.10;;;2.08;;
23444;SDS011;11895;48.738;9.320;2022-11-18T08:39:04;4.40;;;1.60;;
23444;SDS011;11895;48.738;9.320;2022-11-18T08:41:35;16.90;;;8.15;;
23444;SDS011;11895;48.738;9.320;2022-11-18T08:44:09;11.18;;;5.90;;
23444;SDS011;11895;48.738;9.320;2022-11-18T08:46:41;3.30;;;1.58;;
23444;SDS011;11895;48.738;9.320;2022-11-18T08:49:12;6.90;;;2.25;;
23444;SDS011;11895;48.738;9.320;2022-11-18T08:51:41;7.18;;;2.97;;
23444;SDS011;11895;48.738;9.320;2022-11-18T08:54:08;5.00;;;2.78;;
23444;SDS011;11895;48.738;9.320;2022-11-18T08:56:36;12.35;;;4.43;;
23444;SDS011;11895;48.738;9.320;2022-11-18T08:59:05;4.97;;;1.92;;
23444;SDS011;11895;48.738;9.320;2022-11-18T09:01:35;4.88;;;2.70;;
23444;SDS011;11895;48.738;9.320;2022-11-18T09:06:30;8.02;;;3.45;;
23444;SDS011;11895;48.738;9.320;2022-11-18T09:09:00;8.00;;;2.83;;
23444;SDS011;11895;48.738;9.320;2022-11-18T09:11:32;5.25;;;3.40;;
23444;SDS011;11895;48.738;9.320;2022-11-18T09:14:03;4.47;;;2.50;;
23444;SDS011;11895;48.738;9.320;2022-11-18T09:16:51;10.97;;;4.80;;
23444;SDS011;11895;48.738;9.320;2022-11-18T09:19:19;6.60;;;2.72;;
23444;SDS011;11895;48.738;9.320;2022-11-18T09:22:08;7.80;;;2.83;;
23444;SDS011;11895;48.738;9.320;2022-11-18T09:24:35;7.28;;;1.90;;
23444;SDS011;11895;48.738;9.320;2022-11-18T09:27:04;7.95;;;3.00;;
23444;SDS011;11895;48.738;9.320;2022-11-18T09:29:37;4.10;;;2.13;;
23444;SDS011;11895;48.738;9.320;2022-11-18T09:32:05;7.57;;;2.20;;
23444;SDS011;11895;48.738;9.320;2022-11-18T09:34:33;4.15;;;2.10;;
23444;SDS011;11895;48.738;9.320;2022-11-18T09:37:04;4.38;;;2.22;;
23444;SDS011;11895;48.738;9.320;2022-11-18T09:39:33;4.95;;;1.65;;
23444;SDS011;11895;48.738;9.320;2022-11-18T09:47:42;3.65;;;1.83;;
23444;SDS011;11895;48.738;9.320;2022-11-18T09:50:13;3.05;;;1.50;;
23444;SDS011;11895;48.738;9.320;2022-11-18T09:55:47;9.18;;;3.38;;
23444;SDS011;11895;48.738;9.320;2022-11-18T09:58:21;3.78;;;1.70;;
23444;SDS011;11895;48.738;9.320;2022-11-18T10:00:58;9.48;;;5.03;;
23444;SDS011;11895;48.738;9.320;2022-11-18T10:03:29;4.95;;;2.35;;
23444;SDS011;11895;48.738;9.320;2022-11-18T10:25:40;10.05;;;2.53;;
23444;SDS011;11895;48.738;9.320;2022-11-18T10:28:16;8.80;;;2.70;;
23444;SDS011;11895;48.738;9.320;2022-11-18T10:31:05;8.95;;;3.40;;
23444;SDS011;11895;48.738;9.320;2022-11-18T10:33:37;18.25;;;5.70;;
23444;SDS011;11895;48.738;9.320;2022-11-18T10:38:42;7.43;;;2.10;;
23444;SDS011;11895;48.738;9.320;2022-11-18T10:41:16;4.13;;;2.10;;
23444;SDS011;11895;48.738;9.320;2022-11-18T10:43:54;11.00;;;6.25;;
23444;SDS011;11895;48.738;9.320;2022-11-18T10:51:36;3.20;;;2.05;;
23444;SDS011;11895;48.738;9.320;2022-11-18T10:59:49;11.30;;;5.72;;
23444;SDS011;11895;48.738;9.320;2022-11-18T11:02:27;8.93;;;4.15;;
23444;SDS011;11895;48.738;9.320;2022-11-18T11:08:12;6.03;;;3.20;;
23444;SDS011;11895;48.738;9.320;2022-11-18T11:11:02;6.93;;;3.10;;
23444;SDS011;11895;48.738;9.320;2022-11-18T11:13:30;7.80;;;4.30;;
23444;SDS011;11895;48.738;9.320;2022-11-18T11:16:05;18.20;;;9.20;;
23444;SDS011;11895;48.738;9.320;2022-11-18T11:18:39;16.08;;;7.68;;
23444;SDS011;11895;48.738;9.320;2022-11-18T11:21:15;15.57;;;7.00;;
23444;SDS011;11895;48.738;9.320;2022-11-18T11:23:45;7.90;;;4.63;;
23444;SDS011;11895;48.738;9.320;2022-11-18T11:29:16;10.82;;;5.03;;
23444;SDS011;11895;48.738;9.320;2022-11-18T11:57:03;11.02;;;3.88;;
23444;SDS011;11895;48.738;9.320;2022-11-18T12:05:32;7.07;;;4.13;;
23444;SDS011;11895;48.738;9.320;2022-11-18T12:23:13;7.57;;;2.40;;
23444;SDS011;11895;48.738;9.320;2022-11-18T12:36:23;6.40;;;2.92;;
23444;SDS011;11895;48.738;9.320;2022-11-18T12:38:52;6.93;;;2.47;;
23444;SDS011;11895;48.738;9.320;2022-11-18T12:44:36;13.30;;;2.72;;
23444;SDS011;11895;48.738;9.320;2022-11-18T12:47:06;11.75;;;2.80;;
23444;SDS011;11895;48.738;9.320;2022-11-18T12:52:04;6.70;;;3.03;;
23444;SDS011;11895;48.738;9.320;2022-11-18T12:54:55;13.68;;;5.20;;
23444;SDS011;11895;48.738;9.320;2022-11-18T12:57:32;9.45;;;4.45;;
23444;SDS011;11895;48.738;9.320;2022-11-18T13:02:53;7.15;;;2.20;;
23444;SDS011;11895;48.738;9.320;2022-11-18T13:05:28;4.80;;;1.98;;
23444;SDS011;11895;48.738;9.320;2022-11-18T13:08:03;9.05;;;2.75;;
23444;SDS011;11895;48.738;9.320;2022-11-18T13:13:18;6.35;;;2.70;;
23444;SDS011;11895;48.738;9.320;2022-11-18T13:16:19;7.70;;;2.30;;
23444;SDS011;11895;48.738;9.320;2022-11-18T13:19:19;10.02;;;3.25;;
23444;SDS011;11895;48.738;9.320;2022-11-18T13:21:53;9.25;;;3.70;;
23444;SDS011;11895;48.738;9.320;2022-11-18T13:24:43;6.30;;;2.90;;
23444;SDS011;11895;48.738;9.320;2022-11-18T13:27:29;10.13;;;3.40;;
23444;SDS011;11895;48.738;9.320;2022-11-18T13:30:12;7.90;;;3.40;;
23444;SDS011;11895;48.738;9.320;2022-11-18T13:32:44;9.10;;;3.65;;
23444;SDS011;11895;48.738;9.320;2022-11-18T13:35:15;10.32;;;3.75;;
23444;SDS011;11895;48.738;9.320;2022-11-18T13:40:22;8.23;;;4.03;;
23444;SDS011;11895;48.738;9.320;2022-11-18T13:42:56;16.60;;;4.20;;
23444;SDS011;11895;48.738;9.320;2022-11-18T13:45:27;14.20;;;3.78;;
23444;SDS011;11895;48.738;9.320;2022-11-18T13:48:04;6.78;;;3.53;;
23444;SDS011;11895;48.738;9.320;2022-11-18T13:50:43;13.23;;;5.47;;
23444;SDS011;11895;48.738;9.320;2022-11-18T13:53:28;11.73;;;4.80;;
23444;SDS011;11895;48.738;9.320;2022-11-18T13:56:00;7.97;;;3.88;;
23444;SDS011;11895;48.738;9.320;2022-11-18T13:58:40;9.57;;;4.05;;
23444;SDS011;11895;48.738;9.320;2022-11-18T14:01:42;8.25;;;4.80;;
23444;SDS011;11895;48.738;9.320;2022-11-18T14:04:18;14.52;;;4.93;;
23444;SDS011;11895;48.738;9.320;2022-11-18T14:06:52;8.93;;;4.10;;
23444;SDS011;11895;48.738;9.320;2022-11-18T14:10:04;15.00;;;6.03;;
23444;SDS011;11895;48.738;9.320;2022-11-18T14:12:35;19.45;;;8.27;;
23444;SDS011;11895;48.738;9.320;2022-11-18T14:17:58;12.90;;;4.45;;
23444;SDS011;11895;48.738;9.320;2022-11-18T14:20:28;6.20;;;3.17;;
23444;SDS011;11895;48.738;9.320;2022-11-18T14:22:58;10.45;;;3.42;;
23444;SDS011;11895;48.738;9.320;2022-11-18T14:28:08;5.93;;;2.35;;
23444;SDS011;11895;48.738;9.320;2022-11-18T14:33:35;6.93;;;2.60;;
23444;SDS011;11895;48.738;9.320;2022-11-18T14:36:14;3.80;;;2.47;;
23444;SDS011;11895;48.738;9.320;2022-11-18T14:41:35;7.78;;;2.35;;
23444;SDS011;11895;48.738;9.320;2022-11-18T14:44:13;7.85;;;1.98;;
23444;SDS011;11895;48.738;9.320;2022-11-18T14:46:43;5.97;;;1.77;;
23444;SDS011;11895;48.738;9.320;2022-11-18T14:49:19;3.08;;;1.52;;
23444;SDS011;11895;48.738;9.320;2022-11-18T14:51:50;9.68;;;1.90;;
23444;SDS011;11895;48.738;9.320;2022-11-18T14:54:20;6.82;;;1.85;;
23444;SDS011;11895;48.738;9.320;2022-11-18T14:56:56;7.18;;;1.60;;
23444;SDS011;11895;48.738;9.320;2022-11-18T14:59:29;2.60;;;1.48;;
23444;SDS011;11895;48.738;9.320;2022-11-18T15:01:56;3.60;;;1.48;;
23444;SDS011;11895;48.738;9.320;2022-11-18T15:04:25;4.50;;;1.60;;
23444;SDS011;11895;48.738;9.320;2022-11-18T15:06:52;3.50;;;1.70;;
23444;SDS011;11895;48.738;9.320;2022-11-18T15:09:20;2.00;;;1.30;;
23444;SDS011;11895;48.738;9.320;2022-11-18T15:11:49;5.57;;;1.50;;
23444;SDS011;11895;48.738;9.320;2022-11-18T15:14:16;3.55;;;1.70;;
23444;SDS011;11895;48.738;9.320;2022-11-18T15:16:44;5.55;;;1.65;;
23444;SDS011;11895;48.738;9.320;2022-11-18T15:19:13;4.18;;;2.10;;
23444;SDS011;11895;48.738;9.320;2022-11-18T15:21:42;4.90;;;1.50;;
23444;SDS011;11895;48.738;9.320;2022-11-18T15:24:35;7.55;;;1.85;;
23444;SDS011;11895;48.738;9.320;2022-11-18T15:27:03;4.63;;;1.38;;
23444;SDS011;11895;48.738;9.320;2022-11-18T15:29:31;4.95;;;1.52;;
23444;SDS011;11895;48.738;9.320;2022-11-18T15:31:59;3.47;;;1.70;;
23444;SDS011;11895;48.738;9.320;2022-11-18T15:34:30;4.35;;;1.83;;
23444;SDS011;11895;48.738;9.320;2022-11-18T15:36:57;5.35;;;1.90;;
23444;SDS011;11895;48.738;9.320;2022-11-18T15:39:25;5.88;;;2.10;;
23444;SDS011;11895;48.738;9.320;2022-11-18T15:41:53;4.15;;;2.33;;
23444;SDS011;11895;48.738;9.320;2022-11-18T15:44:21;9.48;;;2.88;;
23444;SDS011;11895;48.738;9.320;2022-11-18T15:46:50;7.35;;;2.92;;
23444;SDS011;11895;48.738;9.320;2022-11-18T15:49:17;7.85;;;2.33;;
23444;SDS011;11895;48.738;9.320;2022-11-18T15:51:46;4.15;;;2.63;;
23444;SDS011;11895;48.738;9.320;2022-11-18T15:54:14;7.13;;;2.60;;
23444;SDS011;11895;48.738;9.320;2022-11-18T15:56:42;7.45;;;2.90;;
23444;SDS011;11895;48.738;9.320;2022-11-18T15:59:11;6.80;;;3.30;;
23444;SDS011;11895;48.738;9.320;2022-11-18T16:01:41;12.75;;;3.72;;
23444;SDS011;11895;48.738;9.320;2022-11-18T16:04:13;9.48;;;2.95;;
23444;SDS011;11895;48.738;9.320;2022-11-18T16:06:44;6.75;;;2.60;;
23444;SDS011;11895;48.738;9.320;2022-11-18T16:09:13;8.95;;;3.10;;
23444;SDS011;11895;48.738;9.320;2022-11-18T16:11:44;9.32;;;3.25;;
23444;SDS011;11895;48.738;9.320;2022-11-18T16:14:34;6.88;;;2.72;;
23444;SDS011;11895;48.738;9.320;2022-11-18T16:17:03;10.85;;;5.55;;
23444;SDS011;11895;48.738;9.320;2022-11-18T16:19:31;7.95;;;4.38;;
23444;SDS011;11895;48.738;9.320;2022-11-18T16:21:59;5.45;;;3.65;;
23444;SDS011;11895;48.738;9.320;2022-11-18T16:24:28;6.88;;;2.75;;
23444;SDS011;11895;48.738;9.320;2022-11-18T16:26:55;8.68;;;3.22;;
23444;SDS011;11895;48.738;9.320;2022-11-18T16:29:23;6.50;;;3.22;;
23444;SDS011;11895;48.738;9.320;2022-11-18T16:31:51;7.25;;;3.47;;
23444;SDS011;11895;48.738;9.320;2022-11-18T16:34:21;7.10;;;3.28;;
23444;SDS011;11895;48.738;9.320;2022-11-18T16:36:52;5.78;;;3.17;;
23444;SDS011;11895;48.738;9.320;2022-11-18T16:39:27;6.53;;;2.95;;
23444;SDS011;11895;48.738;9.320;2022-11-18T16:41:59;6.93;;;3.80;;
23444;SDS011;11895;48.738;9.320;2022-11-18T16:44:35;8.55;;;4.22;;
23444;SDS011;11895;48.738;9.320;2022-11-18T16:47:03;11.18;;;4.43;;
23444;SDS011;11895;48.738;9.320;2022-11-18T16:49:39;15.73;;;6.05;;
23444;SDS011;11895;48.738;9.320;2022-11-18T16:52:08;28.08;;;10.85;;
23444;SDS011;11895;48.738;9.320;2022-11-18T16:54:35;11.18;;;5.60;;
23444;SDS011;11895;48.738;9.320;2022-11-18T16:57:11;12.95;;;5.82;;
23444;SDS011;11895;48.738;9.320;2022-11-18T16:59:40;10.68;;;4.90;;
23444;SDS011;11895;48.738;9.320;2022-11-18T17:02:09;9.23;;;3.85;;
23444;SDS011;11895;48.738;9.320;2022-11-18T17:04:38;7.38;;;4.50;;
23444;SDS011;11895;48.738;9.320;2022-11-18T17:07:06;7.93;;;4.15;;
23444;SDS011;11895;48.738;9.320;2022-11-18T17:09:34;9.68;;;4.00;;
23444;SDS011;11895;48.738;9.320;2022-11-18T17:12:03;11.05;;;4.18;;
23444;SDS011;11895;48.738;9.320;2022-11-18T17:14:31;7.72;;;3.42;;
23444;SDS011;11895;48.738;9.320;2022-11-18T17:16:59;7.82;;;4.80;;
23444;SDS011;11895;48.738;9.320;2022-11-18T17:19:27;14.65;;;5.32;;
23444;SDS011;11895;48.738;9.320;2022-11-18T17:21:55;11.38;;;6.10;;
23444;SDS011;11895;48.738;9.320;2022-11-18T17:24:23;10.37;;;5.43;;
23444;SDS011;11895;48.738;9.320;2022-11-18T17:26:52;12.38;;;5.63;;
23444;SDS011;11895;48.738;9.320;2022-11-18T17:29:20;16.37;;;6.63;;
23444;SDS011;11895;48.738;9.320;2022-11-18T17:31:48;13.57;;;6.82;;
23444;SDS011;11895;48.738;9.320;2022-11-18T17:34:16;12.18;;;6.88;;
23444;SDS011;11895;48.738;9.320;2022-11-18T17:36:44;16.40;;;7.75;;
23444;SDS011;11895;48.738;9.320;2022-11-18T17:39:12;14.90;;;7.85;;
23444;SDS011;11895;48.738;9.320;2022-11-18T17:41:39;16.30;;;7.78;;
23444;SDS011;11895;48.738;9.320;2022-11-18T17:44:25;16.23;;;7.72;;
23444;SDS011;11895;48.738;9.320;2022-11-18T17:46:54;13.55;;;6.82;;
23444;SDS011;11895;48.738;9.320;2022-11-18T17:49:22;12.40;;;6.78;;
23444;SDS011;11895;48.738;9.320;2022-11-18T17:51:50;18.08;;;8.60;;
23444;SDS011;11895;48.738;9.320;2022-11-18T17:54:21;13.13;;;6.95;;
23444;SDS011;11895;48.738;9.320;2022-11-18T17:56:49;12.38;;;7.05;;
23444;SDS011;11895;48.738;9.320;2022-11-18T17:59:18;13.10;;;6.38;;
23444;SDS011;11895;48.738;9.320;2022-11-18T18:01:46;17.02;;;7.75;;
23444;SDS011;11895;48.738;9.320;2022-11-18T18:04:24;13.85;;;7.28;;
23444;SDS011;11895;48.738;9.320;2022-11-18T18:06:51;13.57;;;6.53;;